sensor_id;sensor_type;location;lat;lon;timestamp;P1;P2;P0
46381;PMS5003;66809;52.974;-2.514;2023-05-07T00:01:51;7.316666666666666;6.833333333333333;
46381;PMS5003;66809;52.974;-2.514;2023-05-07T00:03:52;7.466666666666667;7.0;
46381;PMS5003;66809;52.974;-2.514;2023-05-07T00:05:51;7.7;7.266666666666667;
46381;PMS5003;66809;52.974;-2.514;2023-05-07T00:07:51;8.0;7.55;
46381;PMS5003;66809;52.974;-2.514;2023-05-07T00:09:52;8.316666666666666;7.8;
46381;PMS5003;66809;52.974;-2.514;2023-05-07T00:11:51;8.566666666666666;8.016666666666667;
46381;PMS5003;66809;52.974;-2.514;2023-05-07T00:13:51;8.933333333333334;8.35;
46381;PMS5003;66809;52.974;-2.514;2023-05-07T00:15:52;9.133333333333333;8.55;
46381;PMS5003;66809;52.974;-2.514;2023-05-07T00:17:51;9.266666666666667;8.683333333333334;
46381;PMS5003;66809;52.974;-2.514;2023-05-07T00:19:52;9.333333333333334;8.766666666666667;
46381;PMS5003;66809;52.974;-2.514;2023-05-07T00:21:51;9.433333333333334;8.85;
46381;PMS5003;66809;52.974;-2.514;2023-05-07T00:23:51;9.6;9.0;
46381;PMS5003;66809;52.974;-2.514;2023-05-07T00:25:52;9.633333333333333;9.0;
46381;PMS5003;66809;52.974;-2.514;2023-05-07T00:27:51;9.766666666666667;9.15;
46381;PMS5003;66809;52.974;-2.514;2023-05-07T00:29:51;9.8;9.183333333333334;
46381;PMS5003;66809;52.974;-2.514;2023-05-07T00:31:52;9.866666666666667;9.3;
46381;PMS5003;66809;52.974;-2.514;2023-05-07T00:33:51;10.016666666666667;9.4;
46381;PMS5003;66809;52.974;-2.514;2023-05-07T00:35:51;10.066666666666666;9.483333333333333;
46381;PMS5003;66809;52.974;-2.514;2023-05-07T00:37:51;10.233333333333333;9.633333333333333;
46381;PMS5003;66809;52.974;-2.514;2023-05-07T00:39:52;10.283333333333333;9.683333333333334;
46381;PMS5003;66809;52.974;-2.514;2023-05-07T00:41:51;10.366666666666667;9.766666666666667;
46381;PMS5003;66809;52.974;-2.514;2023-05-07T00:43:51;10.65;10.016666666666667;
46381;PMS5003;66809;52.974;-2.514;2023-05-07T00:45:52;10.766666666666667;10.2;
46381;PMS5003;66809;52.974;-2.514;2023-05-07T00:47:53;11.05;10.5;
46381;PMS5003;66809;52.974;-2.514;2023-05-07T00:49:51;11.283333333333333;10.766666666666667;
46381;PMS5003;66809;52.974;-2.514;2023-05-07T00:51:51;11.466666666666667;10.933333333333334;
46381;PMS5003;66809;52.974;-2.514;2023-05-07T00:53:51;11.7;11.166666666666666;
46381;PMS5003;66809;52.974;-2.514;2023-05-07T00:55:52;11.95;11.433333333333334;
46381;PMS5003;66809;52.974;-2.514;2023-05-07T00:57:52;12.25;11.716666666666667;
46381;PMS5003;66809;52.974;-2.514;2023-05-07T00:59:51;12.35;11.816666666666666;
46381;PMS5003;66809;52.974;-2.514;2023-05-07T01:01:51;12.416666666666666;11.9;
46381;PMS5003;66809;52.974;-2.514;2023-05-07T01:03:51;12.6;12.066666666666666;
46381;PMS5003;66809;52.974;-2.514;2023-05-07T01:05:51;12.566666666666666;12.033333333333333;
46381;PMS5003;66809;52.974;-2.514;2023-05-07T01:07:51;12.65;12.133333333333333;
46381;PMS5003;66809;52.974;-2.514;2023-05-07T01:09:51;12.716666666666667;12.266666666666667;
46381;PMS5003;66809;52.974;-2.514;2023-05-07T01:11:52;12.833333333333334;12.383333333333333;
46381;PMS5003;66809;52.974;-2.514;2023-05-07T01:13:51;12.783333333333333;12.35;
46381;PMS5003;66809;52.974;-2.514;2023-05-07T01:15:52;13.016666666666667;12.583333333333334;
46381;PMS5003;66809;52.974;-2.514;2023-05-07T01:17:51;13.2;12.75;
46381;PMS5003;66809;52.974;-2.514;2023-05-07T01:19:51;13.483333333333333;13.033333333333333;
46381;PMS5003;66809;52.974;-2.514;2023-05-07T01:21:52;13.733333333333333;13.283333333333333;
46381;PMS5003;66809;52.974;-2.514;2023-05-07T01:23:51;13.866666666666667;13.383333333333333;
46381;PMS5003;66809;52.974;-2.514;2023-05-07T01:25:51;14.116666666666667;13.65;
46381;PMS5003;66809;52.974;-2.514;2023-05-07T01:27:51;14.2;13.733333333333333;
46381;PMS5003;66809;52.974;-2.514;2023-05-07T01:29:51;14.366666666666667;13.883333333333333;
46381;PMS5003;66809;52.974;-2.514;2023-05-07T01:31:52;14.483333333333333;13.95;
46381;PMS5003;66809;52.974;-2.514;2023-05-07T01:33:51;14.6;14.116666666666667;
46381;PMS5003;66809;52.974;-2.514;2023-05-07T01:35:53;14.9;14.366666666666667;
46381;PMS5003;66809;52.974;-2.514;2023-05-07T01:37:51;15.183333333333334;14.633333333333333;
46381;PMS5003;66809;52.974;-2.514;2023-05-07T01:39:52;15.316666666666666;14.766666666666667;
46381;PMS5003;66809;52.974;-2.514;2023-05-07T01:41:51;15.666666666666666;15.05;
46381;PMS5003;66809;52.974;-2.514;2023-05-07T01:43:52;15.75;15.166666666666666;
46381;PMS5003;66809;52.974;-2.514;2023-05-07T01:45:52;15.85;15.25;
46381;PMS5003;66809;52.974;-2.514;2023-05-07T01:47:52;15.9;15.266666666666667;
46381;PMS5003;66809;52.974;-2.514;2023-05-07T01:49:52;15.933333333333334;15.266666666666667;
46381;PMS5003;66809;52.974;-2.514;2023-05-07T01:51:52;16.1;15.416666666666666;
46381;PMS5003;66809;52.974;-2.514;2023-05-07T01:53:52;16.233333333333334;15.55;
46381;PMS5003;66809;52.974;-2.514;2023-05-07T01:55:51;16.533333333333335;15.85;
46381;PMS5003;66809;52.974;-2.514;2023-05-07T01:57:52;16.65;15.983333333333333;
46381;PMS5003;66809;52.974;-2.514;2023-05-07T01:59:51;16.7;16.033333333333335;
46381;PMS5003;66809;52.974;-2.514;2023-05-07T02:01:51;16.983333333333334;16.3;
46381;PMS5003;66809;52.974;-2.514;2023-05-07T02:03:52;17.166666666666668;16.5;
46381;PMS5003;66809;52.974;-2.514;2023-05-07T02:05:51;17.466666666666665;16.8;
46381;PMS5003;66809;52.974;-2.514;2023-05-07T02:07:52;17.566666666666666;16.916666666666668;
46381;PMS5003;66809;52.974;-2.514;2023-05-07T02:09:51;17.8;17.15;
46381;PMS5003;66809;52.974;-2.514;2023-05-07T02:11:51;18.1;17.4;
46381;PMS5003;66809;52.974;-2.514;2023-05-07T02:13:52;18.316666666666666;17.633333333333333;
46381;PMS5003;66809;52.974;-2.514;2023-05-07T02:15:51;18.466666666666665;17.766666666666666;
46381;PMS5003;66809;52.974;-2.514;2023-05-07T02:17:59;18.616666666666667;17.916666666666668;
46381;PMS5003;66809;52.974;-2.514;2023-05-07T02:19:51;18.683333333333334;17.983333333333334;
46381;PMS5003;66809;52.974;-2.514;2023-05-07T02:21:52;18.833333333333332;18.133333333333333;
46381;PMS5003;66809;52.974;-2.514;2023-05-07T02:23:52;19.15;18.483333333333334;
46381;PMS5003;66809;52.974;-2.514;2023-05-07T02:25:51;19.316666666666666;18.65;
46381;PMS5003;66809;52.974;-2.514;2023-05-07T02:27:51;19.683333333333334;18.966666666666665;
46381;PMS5003;66809;52.974;-2.514;2023-05-07T02:29:52;20.066666666666666;19.316666666666666;
46381;PMS5003;66809;52.974;-2.514;2023-05-07T02:31:51;20.283333333333335;19.516666666666666;
46381;PMS5003;66809;52.974;-2.514;2023-05-07T02:33:51;20.833333333333332;19.983333333333334;
46381;PMS5003;66809;52.974;-2.514;2023-05-07T02:35:52;21.15;20.333333333333332;
46381;PMS5003;66809;52.974;-2.514;2023-05-07T02:37:51;21.383333333333333;20.483333333333334;
46381;PMS5003;66809;52.974;-2.514;2023-05-07T02:39:51;21.85;20.9;
46381;PMS5003;66809;52.974;-2.514;2023-05-07T02:41:52;22.116666666666667;21.2;
46381;PMS5003;66809;52.974;-2.514;2023-05-07T02:43:51;22.6;21.583333333333332;
46381;PMS5003;66809;52.974;-2.514;2023-05-07T02:45:59;22.933333333333334;21.916666666666668;
46381;PMS5003;66809;52.974;-2.514;2023-05-07T02:47:51;23.266666666666666;22.2;
46381;PMS5003;66809;52.974;-2.514;2023-05-07T02:49:52;23.733333333333334;22.683333333333334;
46381;PMS5003;66809;52.974;-2.514;2023-05-07T02:51:52;23.866666666666667;22.783333333333335;
46381;PMS5003;66809;52.974;-2.514;2023-05-07T02:53:51;24.116666666666667;23.0;
46381;PMS5003;66809;52.974;-2.514;2023-05-07T02:55:52;24.283333333333335;23.116666666666667;
46381;PMS5003;66809;52.974;-2.514;2023-05-07T02:57:51;24.6;23.316666666666666;
46381;PMS5003;66809;52.974;-2.514;2023-05-07T02:59:51;25.0;23.683333333333334;
46381;PMS5003;66809;52.974;-2.514;2023-05-07T03:01:52;24.966666666666665;23.633333333333333;
46381;PMS5003;66809;52.974;-2.514;2023-05-07T03:03:51;24.966666666666665;23.633333333333333;
46381;PMS5003;66809;52.974;-2.514;2023-05-07T03:05:51;25.133333333333333;23.75;
46381;PMS5003;66809;52.974;-2.514;2023-05-07T03:07:52;25.316666666666666;23.916666666666668;
46381;PMS5003;66809;52.974;-2.514;2023-05-07T03:09:51;25.4;23.933333333333334;
46381;PMS5003;66809;52.974;-2.514;2023-05-07T03:11:51;25.25;23.816666666666666;
46381;PMS5003;66809;52.974;-2.514;2023-05-07T03:13:52;25.183333333333334;23.75;
46381;PMS5003;66809;52.974;-2.514;2023-05-07T03:15:51;25.083333333333332;23.616666666666667;
46381;PMS5003;66809;52.974;-2.514;2023-05-07T03:17:51;25.25;23.683333333333334;
46381;PMS5003;66809;52.974;-2.514;2023-05-07T03:19:52;25.333333333333332;23.7;
46381;PMS5003;66809;52.974;-2.514;2023-05-07T03:21:51;25.316666666666666;23.633333333333333;
46381;PMS5003;66809;52.974;-2.514;2023-05-07T03:23:52;25.216666666666665;23.45;
46381;PMS5003;66809;52.974;-2.514;2023-05-07T03:25:51;25.1;23.316666666666666;
46381;PMS5003;66809;52.974;-2.514;2023-05-07T03:27:51;24.833333333333332;23.1;
46381;PMS5003;66809;52.974;-2.514;2023-05-07T03:29:52;24.65;22.866666666666667;
46381;PMS5003;66809;52.974;-2.514;2023-05-07T03:31:51;24.483333333333334;22.716666666666665;
46381;PMS5003;66809;52.974;-2.514;2023-05-07T03:33:51;23.816666666666666;22.133333333333333;
46381;PMS5003;66809;52.974;-2.514;2023-05-07T03:35:52;23.5;21.75;
46381;PMS5003;66809;52.974;-2.514;2023-05-07T03:37:51;23.183333333333334;21.483333333333334;
46381;PMS5003;66809;52.974;-2.514;2023-05-07T03:39:51;22.816666666666666;21.083333333333332;
46381;PMS5003;66809;52.974;-2.514;2023-05-07T03:41:52;22.35;20.616666666666667;
46381;PMS5003;66809;52.974;-2.514;2023-05-07T03:43:52;21.783333333333335;20.1;
46381;PMS5003;66809;52.974;-2.514;2023-05-07T03:45:51;21.433333333333334;19.733333333333334;
46381;PMS5003;66809;52.974;-2.514;2023-05-07T03:47:51;20.983333333333334;19.316666666666666;
46381;PMS5003;66809;52.974;-2.514;2023-05-07T03:49:52;20.366666666666667;18.716666666666665;
46381;PMS5003;66809;52.974;-2.514;2023-05-07T03:51:51;20.0;18.316666666666666;
46381;PMS5003;66809;52.974;-2.514;2023-05-07T03:53:51;19.433333333333334;17.783333333333335;
46381;PMS5003;66809;52.974;-2.514;2023-05-07T03:55:52;18.85;17.183333333333334;
46381;PMS5003;66809;52.974;-2.514;2023-05-07T03:57:51;18.3;16.75;
46381;PMS5003;66809;52.974;-2.514;2023-05-07T03:59:51;17.7;16.216666666666665;
46381;PMS5003;66809;52.974;-2.514;2023-05-07T04:01:52;17.45;16.016666666666666;
46381;PMS5003;66809;52.974;-2.514;2023-05-07T04:03:51;17.283333333333335;15.8;
46381;PMS5003;66809;52.974;-2.514;2023-05-07T04:05:51;16.833333333333332;15.4;
46381;PMS5003;66809;52.974;-2.514;2023-05-07T04:07:52;16.516666666666666;14.983333333333333;
46381;PMS5003;66809;52.974;-2.514;2023-05-07T04:09:51;16.366666666666667;14.783333333333333;
46381;PMS5003;66809;52.974;-2.514;2023-05-07T04:11:51;16.15;14.6;
46381;PMS5003;66809;52.974;-2.514;2023-05-07T04:13:52;16.016666666666666;14.416666666666666;
46381;PMS5003;66809;52.974;-2.514;2023-05-07T04:15:52;16.033333333333335;14.4;
46381;PMS5003;66809;52.974;-2.514;2023-05-07T04:17:52;15.633333333333333;14.083333333333334;
46381;PMS5003;66809;52.974;-2.514;2023-05-07T04:19:51;15.35;13.816666666666666;
46381;PMS5003;66809;52.974;-2.514;2023-05-07T04:21:51;15.183333333333334;13.716666666666667;
46381;PMS5003;66809;52.974;-2.514;2023-05-07T04:23:52;15.033333333333333;13.6;
46381;PMS5003;66809;52.974;-2.514;2023-05-07T04:25:51;15.05;13.6;
46381;PMS5003;66809;52.974;-2.514;2023-05-07T04:27:51;15.183333333333334;13.7;
46381;PMS5003;66809;52.974;-2.514;2023-05-07T04:29:52;15.1;13.666666666666666;
46381;PMS5003;66809;52.974;-2.514;2023-05-07T04:31:51;15.083333333333334;13.633333333333333;
46381;PMS5003;66809;52.974;-2.514;2023-05-07T04:33:51;15.2;13.733333333333333;
46381;PMS5003;66809;52.974;-2.514;2023-05-07T04:35:52;15.183333333333334;13.716666666666667;
46381;PMS5003;66809;52.974;-2.514;2023-05-07T04:37:51;15.083333333333334;13.666666666666666;
46381;PMS5003;66809;52.974;-2.514;2023-05-07T04:39:52;15.016666666666667;13.65;
46381;PMS5003;66809;52.974;-2.514;2023-05-07T04:41:51;15.066666666666666;13.7;
46381;PMS5003;66809;52.974;-2.514;2023-05-07T04:43:51;15.05;13.7;
46381;PMS5003;66809;52.974;-2.514;2023-05-07T04:45:52;15.1;13.7;
46381;PMS5003;66809;52.974;-2.514;2023-05-07T04:47:51;15.15;13.75;
46381;PMS5003;66809;52.974;-2.514;2023-05-07T04:49:51;15.333333333333334;13.883333333333333;
46381;PMS5003;66809;52.974;-2.514;2023-05-07T04:51:52;15.4;14.016666666666667;
46381;PMS5003;66809;52.974;-2.514;2023-05-07T04:53:51;15.483333333333333;14.066666666666666;
46381;PMS5003;66809;52.974;-2.514;2023-05-07T04:55:54;15.666666666666666;14.3;
46381;PMS5003;66809;52.974;-2.514;2023-05-07T04:57:52;15.866666666666667;14.433333333333334;
46381;PMS5003;66809;52.974;-2.514;2023-05-07T04:59:51;15.866666666666667;14.433333333333334;
46381;PMS5003;66809;52.974;-2.514;2023-05-07T05:01:51;15.666666666666666;14.233333333333333;
46381;PMS5003;66809;52.974;-2.514;2023-05-07T05:03:52;15.566666666666666;14.1;
46381;PMS5003;66809;52.974;-2.514;2023-05-07T05:05:51;15.6;14.1;
46381;PMS5003;66809;52.974;-2.514;2023-05-07T05:07:51;15.583333333333334;14.2;
46381;PMS5003;66809;52.974;-2.514;2023-05-07T05:09:52;15.333333333333334;14.05;
46381;PMS5003;66809;52.974;-2.514;2023-05-07T05:11:51;15.233333333333333;13.866666666666667;
46381;PMS5003;66809;52.974;-2.514;2023-05-07T05:13:51;15.066666666666666;13.733333333333333;
46381;PMS5003;66809;52.974;-2.514;2023-05-07T05:15:52;14.85;13.6;
46381;PMS5003;66809;52.974;-2.514;2023-05-07T05:17:51;14.816666666666666;13.6;
46381;PMS5003;66809;52.974;-2.514;2023-05-07T05:19:51;14.766666666666667;13.583333333333334;
46381;PMS5003;66809;52.974;-2.514;2023-05-07T05:21:52;14.716666666666667;13.466666666666667;
46381;PMS5003;66809;52.974;-2.514;2023-05-07T05:23:51;14.533333333333333;13.283333333333333;
46381;PMS5003;66809;52.974;-2.514;2023-05-07T05:25:55;14.266666666666667;13.016666666666667;
46381;PMS5003;66809;52.974;-2.514;2023-05-07T05:27:51;13.966666666666667;12.7;
46381;PMS5003;66809;52.974;-2.514;2023-05-07T05:29:51;13.75;12.533333333333333;
46381;PMS5003;66809;52.974;-2.514;2023-05-07T05:31:52;13.466666666666667;12.3;
46381;PMS5003;66809;52.974;-2.514;2023-05-07T05:33:51;13.216666666666667;12.066666666666666;
46381;PMS5003;66809;52.974;-2.514;2023-05-07T05:35:51;12.833333333333334;11.733333333333333;
46381;PMS5003;66809;52.974;-2.514;2023-05-07T05:37:51;12.6;11.516666666666667;
46381;PMS5003;66809;52.974;-2.514;2023-05-07T05:39:51;12.416666666666666;11.316666666666666;
46381;PMS5003;66809;52.974;-2.514;2023-05-07T05:41:51;12.15;11.05;
46381;PMS5003;66809;52.974;-2.514;2023-05-07T05:43:52;11.95;10.866666666666667;
46381;PMS5003;66809;52.974;-2.514;2023-05-07T05:45:51;11.766666666666667;10.7;
46381;PMS5003;66809;52.974;-2.514;2023-05-07T05:47:51;11.466666666666667;10.416666666666666;
46381;PMS5003;66809;52.974;-2.514;2023-05-07T05:49:52;11.166666666666666;10.033333333333333;
46381;PMS5003;66809;52.974;-2.514;2023-05-07T05:51:52;10.8;9.7;
46381;PMS5003;66809;52.974;-2.514;2023-05-07T05:53:51;10.583333333333334;9.483333333333333;
46381;PMS5003;66809;52.974;-2.514;2023-05-07T05:55:52;10.166666666666666;9.1;
46381;PMS5003;66809;52.974;-2.514;2023-05-07T05:57:51;9.683333333333334;8.683333333333334;
46381;PMS5003;66809;52.974;-2.514;2023-05-07T05:59:51;9.433333333333334;8.45;
46381;PMS5003;66809;52.974;-2.514;2023-05-07T06:01:51;9.4;8.383333333333333;
46381;PMS5003;66809;52.974;-2.514;2023-05-07T06:03:52;9.133333333333333;8.15;
46381;PMS5003;66809;52.974;-2.514;2023-05-07T06:05:51;8.983333333333333;7.9;
46381;PMS5003;66809;52.974;-2.514;2023-05-07T06:07:51;8.683333333333334;7.6;
46381;PMS5003;66809;52.974;-2.514;2023-05-07T06:09:52;8.45;7.333333333333333;
46381;PMS5003;66809;52.974;-2.514;2023-05-07T06:11:51;8.233333333333333;7.166666666666667;
46381;PMS5003;66809;52.974;-2.514;2023-05-07T06:13:51;8.1;7.033333333333333;
46381;PMS5003;66809;52.974;-2.514;2023-05-07T06:15:52;7.95;6.783333333333333;
46381;PMS5003;66809;52.974;-2.514;2023-05-07T06:17:51;7.75;6.583333333333333;
46381;PMS5003;66809;52.974;-2.514;2023-05-07T06:19:51;7.6;6.366666666666666;
46381;PMS5003;66809;52.974;-2.514;2023-05-07T06:21:51;7.4;6.216666666666667;
46381;PMS5003;66809;52.974;-2.514;2023-05-07T06:23:52;7.366666666666666;6.183333333333334;
46381;PMS5003;66809;52.974;-2.514;2023-05-07T06:25:52;7.233333333333333;6.05;
46381;PMS5003;66809;52.974;-2.514;2023-05-07T06:27:51;7.05;5.9;
46381;PMS5003;66809;52.974;-2.514;2023-05-07T06:29:51;6.95;5.733333333333333;
46381;PMS5003;66809;52.974;-2.514;2023-05-07T06:31:52;6.883333333333334;5.65;
46381;PMS5003;66809;52.974;-2.514;2023-05-07T06:33:52;6.9;5.566666666666666;
46381;PMS5003;66809;52.974;-2.514;2023-05-07T06:35:51;6.883333333333334;5.583333333333333;
46381;PMS5003;66809;52.974;-2.514;2023-05-07T06:37:51;6.866666666666666;5.5;
46381;PMS5003;66809;52.974;-2.514;2023-05-07T06:39:52;6.816666666666666;5.433333333333334;
46381;PMS5003;66809;52.974;-2.514;2023-05-07T06:41:51;6.8;5.383333333333334;
46381;PMS5003;66809;52.974;-2.514;2023-05-07T06:43:51;6.7;5.316666666666666;
46381;PMS5003;66809;52.974;-2.514;2023-05-07T06:45:52;6.45;5.116666666666666;
46381;PMS5003;66809;52.974;-2.514;2023-05-07T06:47:51;6.4;5.1;
46381;PMS5003;66809;52.974;-2.514;2023-05-07T06:49:51;6.3;5.1;
46381;PMS5003;66809;52.974;-2.514;2023-05-07T06:51:52;6.35;5.083333333333333;
46381;PMS5003;66809;52.974;-2.514;2023-05-07T06:53:51;6.316666666666666;5.1;
46381;PMS5003;66809;52.974;-2.514;2023-05-07T06:55:51;6.283333333333333;5.066666666666666;
46381;PMS5003;66809;52.974;-2.514;2023-05-07T06:57:52;6.3;5.066666666666666;
46381;PMS5003;66809;52.974;-2.514;2023-05-07T06:59:51;6.35;5.1;
46381;PMS5003;66809;52.974;-2.514;2023-05-07T07:01:52;6.266666666666667;5.05;
46381;PMS5003;66809;52.974;-2.514;2023-05-07T07:03:51;6.316666666666666;5.083333333333333;
46381;PMS5003;66809;52.974;-2.514;2023-05-07T07:05:52;6.166666666666667;5.066666666666666;
46381;PMS5003;66809;52.974;-2.514;2023-05-07T07:07:51;6.166666666666667;5.033333333333333;
46381;PMS5003;66809;52.974;-2.514;2023-05-07T07:09:51;6.233333333333333;5.066666666666666;
46381;PMS5003;66809;52.974;-2.514;2023-05-07T07:11:52;6.183333333333334;5.016666666666667;
46381;PMS5003;66809;52.974;-2.514;2023-05-07T07:13:52;6.15;4.983333333333333;
46381;PMS5003;66809;52.974;-2.514;2023-05-07T07:15:52;6.05;4.933333333333334;
46381;PMS5003;66809;52.974;-2.514;2023-05-07T07:17:51;6.15;4.9;
46381;PMS5003;66809;52.974;-2.514;2023-05-07T07:19:51;6.1;4.916666666666667;
46381;PMS5003;66809;52.974;-2.514;2023-05-07T07:21:52;6.1;4.883333333333334;
46381;PMS5003;66809;52.974;-2.514;2023-05-07T07:23:51;6.016666666666667;4.85;
46381;PMS5003;66809;52.974;-2.514;2023-05-07T07:25:51;6.0;4.866666666666666;
46381;PMS5003;66809;52.974;-2.514;2023-05-07T07:27:52;6.033333333333333;4.883333333333334;
46381;PMS5003;66809;52.974;-2.514;2023-05-07T07:29:51;6.033333333333333;4.9;
46381;PMS5003;66809;52.974;-2.514;2023-05-07T07:31:51;6.0;4.883333333333334;
46381;PMS5003;66809;52.974;-2.514;2023-05-07T07:33:52;5.866666666666666;4.816666666666666;
46381;PMS5003;66809;52.974;-2.514;2023-05-07T07:35:51;5.866666666666666;4.716666666666667;
46381;PMS5003;66809;52.974;-2.514;2023-05-07T07:37:51;5.716666666666667;4.633333333333334;
46381;PMS5003;66809;52.974;-2.514;2023-05-07T07:39:52;5.65;4.583333333333333;
46381;PMS5003;66809;52.974;-2.514;2023-05-07T07:41:51;5.6;4.55;
46381;PMS5003;66809;52.974;-2.514;2023-05-07T07:43:51;5.633333333333334;4.533333333333333;
46381;PMS5003;66809;52.974;-2.514;2023-05-07T07:45:52;5.65;4.533333333333333;
46381;PMS5003;66809;52.974;-2.514;2023-05-07T07:47:51;5.633333333333334;4.5;
46381;PMS5003;66809;52.974;-2.514;2023-05-07T07:49:51;5.6;4.433333333333334;
46381;PMS5003;66809;52.974;-2.514;2023-05-07T07:51:51;5.5;4.366666666666666;
46381;PMS5003;66809;52.974;-2.514;2023-05-07T07:53:52;5.416666666666667;4.283333333333333;
46381;PMS5003;66809;52.974;-2.514;2023-05-07T07:55:51;5.466666666666667;4.283333333333333;
46381;PMS5003;66809;52.974;-2.514;2023-05-07T07:57:51;5.466666666666667;4.283333333333333;
46381;PMS5003;66809;52.974;-2.514;2023-05-07T07:59:52;5.366666666666666;4.183333333333334;
46381;PMS5003;66809;52.974;-2.514;2023-05-07T08:01:51;5.316666666666666;4.133333333333334;
46381;PMS5003;66809;52.974;-2.514;2023-05-07T08:03:51;5.15;4.0;
46381;PMS5003;66809;52.974;-2.514;2023-05-07T08:05:52;5.1;3.8833333333333333;
46381;PMS5003;66809;52.974;-2.514;2023-05-07T08:07:51;5.066666666666666;3.8666666666666667;
46381;PMS5003;66809;52.974;-2.514;2023-05-07T08:09:51;4.85;3.7333333333333334;
46381;PMS5003;66809;52.974;-2.514;2023-05-07T08:11:52;4.833333333333333;3.716666666666667;
46381;PMS5003;66809;52.974;-2.514;2023-05-07T08:13:51;4.816666666666666;3.6666666666666665;
46381;PMS5003;66809;52.974;-2.514;2023-05-07T08:15:52;4.733333333333333;3.6166666666666667;
46381;PMS5003;66809;52.974;-2.514;2023-05-07T08:17:51;4.5;3.5166666666666666;
46381;PMS5003;66809;52.974;-2.514;2023-05-07T08:19:52;4.416666666666667;3.45;
46381;PMS5003;66809;52.974;-2.514;2023-05-07T08:21:51;4.216666666666667;3.3;
46381;PMS5003;66809;52.974;-2.514;2023-05-07T08:23:51;4.183333333333334;3.2666666666666666;
46381;PMS5003;66809;52.974;-2.514;2023-05-07T08:25:52;4.2;3.2666666666666666;
46381;PMS5003;66809;52.974;-2.514;2023-05-07T08:27:51;4.133333333333334;3.25;
46381;PMS5003;66809;52.974;-2.514;2023-05-07T08:29:52;4.016666666666667;3.183333333333333;
46381;PMS5003;66809;52.974;-2.514;2023-05-07T08:31:51;3.9166666666666665;3.1;
46381;PMS5003;66809;52.974;-2.514;2023-05-07T08:33:51;3.966666666666667;3.15;
46381;PMS5003;66809;52.974;-2.514;2023-05-07T08:35:52;3.9;3.183333333333333;
46381;PMS5003;66809;52.974;-2.514;2023-05-07T08:37:51;3.95;3.216666666666667;
46381;PMS5003;66809;52.974;-2.514;2023-05-07T08:39:51;3.9;3.2;
46381;PMS5003;66809;52.974;-2.514;2023-05-07T08:41:52;3.933333333333333;3.25;
46381;PMS5003;66809;52.974;-2.514;2023-05-07T08:43:51;3.95;3.25;
46381;PMS5003;66809;52.974;-2.514;2023-05-07T08:45:53;3.95;3.216666666666667;
46381;PMS5003;66809;52.974;-2.514;2023-05-07T08:47:52;3.9833333333333334;3.25;
46381;PMS5003;66809;52.974;-2.514;2023-05-07T08:49:51;3.95;3.25;
46381;PMS5003;66809;52.974;-2.514;2023-05-07T08:51:51;3.966666666666667;3.25;
46381;PMS5003;66809;52.974;-2.514;2023-05-07T08:53:51;4.0;3.216666666666667;
46381;PMS5003;66809;52.974;-2.514;2023-05-07T08:55:51;3.933333333333333;3.183333333333333;
46381;PMS5003;66809;52.974;-2.514;2023-05-07T08:57:52;3.8833333333333333;3.15;
46381;PMS5003;66809;52.974;-2.514;2023-05-07T08:59:51;3.933333333333333;3.183333333333333;
46381;PMS5003;66809;52.974;-2.514;2023-05-07T09:01:51;3.9833333333333334;3.183333333333333;
46381;PMS5003;66809;52.974;-2.514;2023-05-07T09:03:51;4.016666666666667;3.216666666666667;
46381;PMS5003;66809;52.974;-2.514;2023-05-07T09:05:52;4.016666666666667;3.283333333333333;
46381;PMS5003;66809;52.974;-2.514;2023-05-07T09:07:51;3.9833333333333334;3.216666666666667;
46381;PMS5003;66809;52.974;-2.514;2023-05-07T09:09:51;4.016666666666667;3.216666666666667;
46381;PMS5003;66809;52.974;-2.514;2023-05-07T09:11:56;4.05;3.25;
46381;PMS5003;66809;52.974;-2.514;2023-05-07T09:13:53;4.033333333333333;3.2666666666666666;
46381;PMS5003;66809;52.974;-2.514;2023-05-07T09:15:51;3.9833333333333334;3.2333333333333334;
46381;PMS5003;66809;52.974;-2.514;2023-05-07T09:17:51;4.033333333333333;3.2666666666666666;
46381;PMS5003;66809;52.974;-2.514;2023-05-07T09:19:52;4.0;3.2333333333333334;
46381;PMS5003;66809;52.974;-2.514;2023-05-07T09:21:57;4.0;3.2333333333333334;
46381;PMS5003;66809;52.974;-2.514;2023-05-07T09:23:52;4.0;3.216666666666667;
46381;PMS5003;66809;52.974;-2.514;2023-05-07T09:25:52;4.0;3.2;
46381;PMS5003;66809;52.974;-2.514;2023-05-07T09:27:51;4.016666666666667;3.216666666666667;
46381;PMS5003;66809;52.974;-2.514;2023-05-07T09:29:52;4.033333333333333;3.2333333333333334;
46381;PMS5003;66809;52.974;-2.514;2023-05-07T09:31:51;4.216666666666667;3.35;
46381;PMS5003;66809;52.974;-2.514;2023-05-07T09:33:52;4.183333333333334;3.316666666666667;
46381;PMS5003;66809;52.974;-2.514;2023-05-07T09:35:52;4.216666666666667;3.35;
46381;PMS5003;66809;52.974;-2.514;2023-05-07T09:37:51;4.216666666666667;3.35;
46381;PMS5003;66809;52.974;-2.514;2023-05-07T09:39:52;4.216666666666667;3.35;